sensor_id;sensor_type;location;lat;lon;timestamp;P1;P2;P0
55518;PMS5003;41724;51.176;-0.708;2023-05-19T00:01:08;12;11;
55518;PMS5003;41724;51.176;-0.708;2023-05-19T00:03:36;8;8;
55518;PMS5003;41724;51.176;-0.708;2023-05-19T00:06:04;10;9;
55518;PMS5003;41724;51.176;-0.708;2023-05-19T00:08:33;7;7;
55518;PMS5003;41724;51.176;-0.708;2023-05-19T00:11:02;12;11;
55518;PMS5003;41724;51.176;-0.708;2023-05-19T00:13:30;8;8;
55518;PMS5003;41724;51.176;-0.708;2023-05-19T00:15:57;8;7;
55518;PMS5003;41724;51.176;-0.708;2023-05-19T00:18:25;9;9;
55518;PMS5003;41724;51.176;-0.708;2023-05-19T00:20:52;7;6;
55518;PMS5003;41724;51.176;-0.708;2023-05-19T00:23:19;10;10;
55518;PMS5003;41724;51.176;-0.708;2023-05-19T00:25:46;8;8;
55518;PMS5003;41724;51.176;-0.708;2023-05-19T00:28:13;9;7;
55518;PMS5003;41724;51.176;-0.708;2023-05-19T00:30:40;9;9;
55518;PMS5003;41724;51.176;-0.708;2023-05-19T00:33:07;12;11;
55518;PMS5003;41724;51.176;-0.708;2023-05-19T00:35:35;12;10;
55518;PMS5003;41724;51.176;-0.708;2023-05-19T00:38:02;10;10;
55518;PMS5003;41724;51.176;-0.708;2023-05-19T00:40:29;8;8;
55518;PMS5003;41724;51.176;-0.708;2023-05-19T00:42:57;10;10;
55518;PMS5003;41724;51.176;-0.708;2023-05-19T00:45:25;13;13;
55518;PMS5003;41724;51.176;-0.708;2023-05-19T00:47:53;9;8;
55518;PMS5003;41724;51.176;-0.708;2023-05-19T00:50:20;9;8;
55518;PMS5003;41724;51.176;-0.708;2023-05-19T00:52:48;10;8;
55518;PMS5003;41724;51.176;-0.708;2023-05-19T00:55:15;11;11;
55518;PMS5003;41724;51.176;-0.708;2023-05-19T00:57:42;9;9;
55518;PMS5003;41724;51.176;-0.708;2023-05-19T01:00:10;10;9;
55518;PMS5003;41724;51.176;-0.708;2023-05-19T01:02:38;9;9;
55518;PMS5003;41724;51.176;-0.708;2023-05-19T01:05:06;9;9;
55518;PMS5003;41724;51.176;-0.708;2023-05-19T01:07:34;12;10;
55518;PMS5003;41724;51.176;-0.708;2023-05-19T01:10:02;9;9;
55518;PMS5003;41724;51.176;-0.708;2023-05-19T01:12:30;17;10;
55518;PMS5003;41724;51.176;-0.708;2023-05-19T01:14:57;9;9;
55518;PMS5003;41724;51.176;-0.708;2023-05-19T01:17:25;13;11;
55518;PMS5003;41724;51.176;-0.708;2023-05-19T01:20:01;12;11;
55518;PMS5003;41724;51.176;-0.708;2023-05-19T01:22:38;11;10;
55518;PMS5003;41724;51.176;-0.708;2023-05-19T01:26:23;14;13;
55518;PMS5003;41724;51.176;-0.708;2023-05-19T01:29:07;10;9;
55518;PMS5003;41724;51.176;-0.708;2023-05-19T01:31:49;15;15;
55518;PMS5003;41724;51.176;-0.708;2023-05-19T01:34:18;12;11;
55518;PMS5003;41724;51.176;-0.708;2023-05-19T01:36:48;13;13;
55518;PMS5003;41724;51.176;-0.708;2023-05-19T01:39:16;16;13;
55518;PMS5003;41724;51.176;-0.708;2023-05-19T01:41:45;12;11;
55518;PMS5003;41724;51.176;-0.708;2023-05-19T01:44:14;14;14;
55518;PMS5003;41724;51.176;-0.708;2023-05-19T01:46:41;12;11;
55518;PMS5003;41724;51.176;-0.708;2023-05-19T01:49:08;11;11;
55518;PMS5003;41724;51.176;-0.708;2023-05-19T01:51:36;15;14;
55518;PMS5003;41724;51.176;-0.708;2023-05-19T01:54:03;16;14;
55518;PMS5003;41724;51.176;-0.708;2023-05-19T01:56:33;14;14;
55518;PMS5003;41724;51.176;-0.708;2023-05-19T01:59:11;16;15;
55518;PMS5003;41724;51.176;-0.708;2023-05-19T02:01:51;21;20;
55518;PMS5003;41724;51.176;-0.708;2023-05-19T02:04:23;13;13;
55518;PMS5003;41724;51.176;-0.708;2023-05-19T02:07:02;14;14;
55518;PMS5003;41724;51.176;-0.708;2023-05-19T02:09:37;14;12;
55518;PMS5003;41724;51.176;-0.708;2023-05-19T02:12:13;14;14;
55518;PMS5003;41724;51.176;-0.708;2023-05-19T02:14:44;12;12;
55518;PMS5003;41724;51.176;-0.708;2023-05-19T02:17:19;12;11;
55518;PMS5003;41724;51.176;-0.708;2023-05-19T02:19:48;12;10;
55518;PMS5003;41724;51.176;-0.708;2023-05-19T02:22:15;14;14;
55518;PMS5003;41724;51.176;-0.708;2023-05-19T02:24:42;12;12;
55518;PMS5003;41724;51.176;-0.708;2023-05-19T02:27:10;19;17;
55518;PMS5003;41724;51.176;-0.708;2023-05-19T02:29:36;17;17;
55518;PMS5003;41724;51.176;-0.708;2023-05-19T02:32:04;15;14;
55518;PMS5003;41724;51.176;-0.708;2023-05-19T02:34:32;14;14;
55518;PMS5003;41724;51.176;-0.708;2023-05-19T02:36:59;14;14;
55518;PMS5003;41724;51.176;-0.708;2023-05-19T02:39:27;18;16;
55518;PMS5003;41724;51.176;-0.708;2023-05-19T02:41:54;15;14;
55518;PMS5003;41724;51.176;-0.708;2023-05-19T02:44:21;15;13;
55518;PMS5003;41724;51.176;-0.708;2023-05-19T02:46:48;14;14;
55518;PMS5003;41724;51.176;-0.708;2023-05-19T02:49:14;16;16;
55518;PMS5003;41724;51.176;-0.708;2023-05-19T02:51:41;12;12;
55518;PMS5003;41724;51.176;-0.708;2023-05-19T02:54:08;15;15;
55518;PMS5003;41724;51.176;-0.708;2023-05-19T02:56:35;19;17;
55518;PMS5003;41724;51.176;-0.708;2023-05-19T02:59:02;16;14;
55518;PMS5003;41724;51.176;-0.708;2023-05-19T03:01:28;18;17;
55518;PMS5003;41724;51.176;-0.708;2023-05-19T03:03:56;13;13;
55518;PMS5003;41724;51.176;-0.708;2023-05-19T03:06:23;14;13;
55518;PMS5003;41724;51.176;-0.708;2023-05-19T03:08:50;14;13;
55518;PMS5003;41724;51.176;-0.708;2023-05-19T03:11:17;17;16;
55518;PMS5003;41724;51.176;-0.708;2023-05-19T03:13:44;15;15;
55518;PMS5003;41724;51.176;-0.708;2023-05-19T03:16:11;12;12;
55518;PMS5003;41724;51.176;-0.708;2023-05-19T03:18:38;12;11;
55518;PMS5003;41724;51.176;-0.708;2023-05-19T03:21:06;19;17;
55518;PMS5003;41724;51.176;-0.708;2023-05-19T03:23:33;14;14;
55518;PMS5003;41724;51.176;-0.708;2023-05-19T03:25:59;17;14;
55518;PMS5003;41724;51.176;-0.708;2023-05-19T03:28:27;17;16;
55518;PMS5003;41724;51.176;-0.708;2023-05-19T03:30:53;18;17;
55518;PMS5003;41724;51.176;-0.708;2023-05-19T03:33:20;16;16;
55518;PMS5003;41724;51.176;-0.708;2023-05-19T03:35:47;19;18;
55518;PMS5003;41724;51.176;-0.708;2023-05-19T03:38:15;14;13;
55518;PMS5003;41724;51.176;-0.708;2023-05-19T03:40:41;15;15;
55518;PMS5003;41724;51.176;-0.708;2023-05-19T03:43:08;17;16;
55518;PMS5003;41724;51.176;-0.708;2023-05-19T03:45:35;13;13;
55518;PMS5003;41724;51.176;-0.708;2023-05-19T03:48:02;15;14;
55518;PMS5003;41724;51.176;-0.708;2023-05-19T03:50:30;14;14;
55518;PMS5003;41724;51.176;-0.708;2023-05-19T03:52:57;17;16;
55518;PMS5003;41724;51.176;-0.708;2023-05-19T03:55:24;15;15;
55518;PMS5003;41724;51.176;-0.708;2023-05-19T03:57:52;13;11;
55518;PMS5003;41724;51.176;-0.708;2023-05-19T04:00:19;14;14;
55518;PMS5003;41724;51.176;-0.708;2023-05-19T04:02:46;13;13;
55518;PMS5003;41724;51.176;-0.708;2023-05-19T04:05:13;19;16;
55518;PMS5003;41724;51.176;-0.708;2023-05-19T04:07:40;15;14;
55518;PMS5003;41724;51.176;-0.708;2023-05-19T04:10:08;14;14;
55518;PMS5003;41724;51.176;-0.708;2023-05-19T04:12:35;12;12;
55518;PMS5003;41724;51.176;-0.708;2023-05-19T04:15:02;17;16;
55518;PMS5003;41724;51.176;-0.708;2023-05-19T04:17:30;13;13;
55518;PMS5003;41724;51.176;-0.708;2023-05-19T04:19:57;14;14;
55518;PMS5003;41724;51.176;-0.708;2023-05-19T04:22:23;18;15;
55518;PMS5003;41724;51.176;-0.708;2023-05-19T04:24:50;19;15;
55518;PMS5003;41724;51.176;-0.708;2023-05-19T04:27:18;16;15;
55518;PMS5003;41724;51.176;-0.708;2023-05-19T04:29:45;13;13;
55518;PMS5003;41724;51.176;-0.708;2023-05-19T04:32:12;12;12;
55518;PMS5003;41724;51.176;-0.708;2023-05-19T04:34:39;14;12;
55518;PMS5003;41724;51.176;-0.708;2023-05-19T04:37:06;14;13;
55518;PMS5003;41724;51.176;-0.708;2023-05-19T04:39:33;13;12;
55518;PMS5003;41724;51.176;-0.708;2023-05-19T04:42:00;15;15;
55518;PMS5003;41724;51.176;-0.708;2023-05-19T04:44:27;19;16;
55518;PMS5003;41724;51.176;-0.708;2023-05-19T04:46:54;16;15;
55518;PMS5003;41724;51.176;-0.708;2023-05-19T04:49:21;15;13;
55518;PMS5003;41724;51.176;-0.708;2023-05-19T04:51:48;15;15;
55518;PMS5003;41724;51.176;-0.708;2023-05-19T04:54:16;17;16;
55518;PMS5003;41724;51.176;-0.708;2023-05-19T04:56:43;14;13;
55518;PMS5003;41724;51.176;-0.708;2023-05-19T04:59:09;12;12;
55518;PMS5003;41724;51.176;-0.708;2023-05-19T05:01:37;17;16;
55518;PMS5003;41724;51.176;-0.708;2023-05-19T05:04:04;12;12;
55518;PMS5003;41724;51.176;-0.708;2023-05-19T05:06:32;15;13;
55518;PMS5003;41724;51.176;-0.708;2023-05-19T05:08:59;14;13;
55518;PMS5003;41724;51.176;-0.708;2023-05-19T05:11:26;13;13;
55518;PMS5003;41724;51.176;-0.708;2023-05-19T05:13:54;15;14;
55518;PMS5003;41724;51.176;-0.708;2023-05-19T05:16:22;17;17;
55518;PMS5003;41724;51.176;-0.708;2023-05-19T05:18:49;16;15;
55518;PMS5003;41724;51.176;-0.708;2023-05-19T05:21:17;15;13;
55518;PMS5003;41724;51.176;-0.708;2023-05-19T05:23:45;13;13;
55518;PMS5003;41724;51.176;-0.708;2023-05-19T05:26:15;17;15;
55518;PMS5003;41724;51.176;-0.708;2023-05-19T05:28:44;12;12;
55518;PMS5003;41724;51.176;-0.708;2023-05-19T05:31:11;16;15;
55518;PMS5003;41724;51.176;-0.708;2023-05-19T05:33:38;14;13;
55518;PMS5003;41724;51.176;-0.708;2023-05-19T05:36:06;16;14;
55518;PMS5003;41724;51.176;-0.708;2023-05-19T05:38:34;11;11;
55518;PMS5003;41724;51.176;-0.708;2023-05-19T05:41:01;15;15;
55518;PMS5003;41724;51.176;-0.708;2023-05-19T05:43:29;17;15;
55518;PMS5003;41724;51.176;-0.708;2023-05-19T05:45:56;18;17;
55518;PMS5003;41724;51.176;-0.708;2023-05-19T05:48:23;18;17;
55518;PMS5003;41724;51.176;-0.708;2023-05-19T05:50:51;15;14;
55518;PMS5003;41724;51.176;-0.708;2023-05-19T05:53:19;16;16;
55518;PMS5003;41724;51.176;-0.708;2023-05-19T05:55:50;14;14;
55518;PMS5003;41724;51.176;-0.708;2023-05-19T05:58:18;13;11;
55518;PMS5003;41724;51.176;-0.708;2023-05-19T06:00:44;12;11;
55518;PMS5003;41724;51.176;-0.708;2023-05-19T06:03:12;15;13;
55518;PMS5003;41724;51.176;-0.708;2023-05-19T06:05:39;12;11;
55518;PMS5003;41724;51.176;-0.708;2023-05-19T06:08:06;13;13;
55518;PMS5003;41724;51.176;-0.708;2023-05-19T06:10:33;10;10;
55518;PMS5003;41724;51.176;-0.708;2023-05-19T06:13:05;12;12;
55518;PMS5003;41724;51.176;-0.708;2023-05-19T06:15:32;9;9;
55518;PMS5003;41724;51.176;-0.708;2023-05-19T06:17:59;11;9;
55518;PMS5003;41724;51.176;-0.708;2023-05-19T06:20:27;9;7;
55518;PMS5003;41724;51.176;-0.708;2023-05-19T06:22:54;8;8;
55518;PMS5003;41724;51.176;-0.708;2023-05-19T06:25:20;9;8;
55518;PMS5003;41724;51.176;-0.708;2023-05-19T06:27:47;7;7;
55518;PMS5003;41724;51.176;-0.708;2023-05-19T06:30:14;8;8;
55518;PMS5003;41724;51.176;-0.708;2023-05-19T06:32:41;5;5;
55518;PMS5003;41724;51.176;-0.708;2023-05-19T06:35:08;10;9;
55518;PMS5003;41724;51.176;-0.708;2023-05-19T06:37:35;9;9;
55518;PMS5003;41724;51.176;-0.708;2023-05-19T06:40:02;9;8;
55518;PMS5003;41724;51.176;-0.708;2023-05-19T06:42:30;8;8;
55518;PMS5003;41724;51.176;-0.708;2023-05-19T06:44:57;8;8;
55518;PMS5003;41724;51.176;-0.708;2023-05-19T06:47:24;6;6;
55518;PMS5003;41724;51.176;-0.708;2023-05-19T06:49:51;10;9;
55518;PMS5003;41724;51.176;-0.708;2023-05-19T06:52:18;8;7;
55518;PMS5003;41724;51.176;-0.708;2023-05-19T06:54:46;9;8;
55518;PMS5003;41724;51.176;-0.708;2023-05-19T06:57:13;7;7;
55518;PMS5003;41724;51.176;-0.708;2023-05-19T06:59:40;9;9;
55518;PMS5003;41724;51.176;-0.708;2023-05-19T07:02:08;7;7;
55518;PMS5003;41724;51.176;-0.708;2023-05-19T07:04:35;9;7;
55518;PMS5003;41724;51.176;-0.708;2023-05-19T07:07:02;9;8;
55518;PMS5003;41724;51.176;-0.708;2023-05-19T07:09:29;10;10;
55518;PMS5003;41724;51.176;-0.708;2023-05-19T07:11:56;11;10;
55518;PMS5003;41724;51.176;-0.708;2023-05-19T07:14:23;8;7;
55518;PMS5003;41724;51.176;-0.708;2023-05-19T07:16:50;10;9;
55518;PMS5003;41724;51.176;-0.708;2023-05-19T07:19:18;11;11;
55518;PMS5003;41724;51.176;-0.708;2023-05-19T07:21:45;10;9;
55518;PMS5003;41724;51.176;-0.708;2023-05-19T07:24:12;9;9;
55518;PMS5003;41724;51.176;-0.708;2023-05-19T07:26:39;7;7;
55518;PMS5003;41724;51.176;-0.708;2023-05-19T07:29:07;8;8;
55518;PMS5003;41724;51.176;-0.708;2023-05-19T07:31:34;7;6;
55518;PMS5003;41724;51.176;-0.708;2023-05-19T07:34:01;9;9;
55518;PMS5003;41724;51.176;-0.708;2023-05-19T07:36:28;10;9;
55518;PMS5003;41724;51.176;-0.708;2023-05-19T07:38:56;11;11;
55518;PMS5003;41724;51.176;-0.708;2023-05-19T07:41:23;9;9;
55518;PMS5003;41724;51.176;-0.708;2023-05-19T07:43:50;10;10;
55518;PMS5003;41724;51.176;-0.708;2023-05-19T07:46:17;18;16;
55518;PMS5003;41724;51.176;-0.708;2023-05-19T07:48:44;23;21;
55518;PMS5003;41724;51.176;-0.708;2023-05-19T07:51:11;18;18;
55518;PMS5003;41724;51.176;-0.708;2023-05-19T07:53:39;14;14;
55518;PMS5003;41724;51.176;-0.708;2023-05-19T07:56:06;10;9;
55518;PMS5003;41724;51.176;-0.708;2023-05-19T07:58:33;9;9;
55518;PMS5003;41724;51.176;-0.708;2023-05-19T08:01:00;11;11;
55518;PMS5003;41724;51.176;-0.708;2023-05-19T08:03:27;10;8;
55518;PMS5003;41724;51.176;-0.708;2023-05-19T08:05:55;12;11;
55518;PMS5003;41724;51.176;-0.708;2023-05-19T08:08:22;13;10;
55518;PMS5003;41724;51.176;-0.708;2023-05-19T08:10:49;11;9;
55518;PMS5003;41724;51.176;-0.708;2023-05-19T08:13:16;9;8;
55518;PMS5003;41724;51.176;-0.708;2023-05-19T08:15:43;7;7;
55518;PMS5003;41724;51.176;-0.708;2023-05-19T08:18:10;11;10;
55518;PMS5003;41724;51.176;-0.708;2023-05-19T08:20:37;10;10;
55518;PMS5003;41724;51.176;-0.708;2023-05-19T08:23:05;9;9;
55518;PMS5003;41724;51.176;-0.708;2023-05-19T08:25:32;8;8;
55518;PMS5003;41724;51.176;-0.708;2023-05-19T08:27:59;10;10;
55518;PMS5003;41724;51.176;-0.708;2023-05-19T08:30:26;12;9;
55518;PMS5003;41724;51.176;-0.708;2023-05-19T08:32:53;11;9;
55518;PMS5003;41724;51.176;-0.708;2023-05-19T08:35:20;8;8;
55518;PMS5003;41724;51.176;-0.708;2023-05-19T08:37:47;11;10;
55518;PMS5003;41724;51.176;-0.708;2023-05-19T08:40:15;8;8;
55518;PMS5003;41724;51.176;-0.708;2023-05-19T08:42:43;10;8;
55518;PMS5003;41724;51.176;-0.708;2023-05-19T08:45:11;9;9;
55518;PMS5003;41724;51.176;-0.708;2023-05-19T08:47:38;8;8;
55518;PMS5003;41724;51.176;-0.708;2023-05-19T08:50:07;9;9;
55518;PMS5003;41724;51.176;-0.708;2023-05-19T08:52:39;10;8;
55518;PMS5003;41724;51.176;-0.708;2023-05-19T08:55:14;11;11;
55518;PMS5003;41724;51.176;-0.708;2023-05-19T08:57:54;10;9;
55518;PMS5003;41724;51.176;-0.708;2023-05-19T09:00:22;9;9;
55518;PMS5003;41724;51.176;-0.708;2023-05-19T09:02:50;8;7;
55518;PMS5003;41724;51.176;-0.708;2023-05-19T09:05:18;9;9;
55518;PMS5003;41724;51.176;-0.708;2023-05-19T09:07:45;10;9;
55518;PMS5003;41724;51.176;-0.708;2023-05-19T09:10:12;11;9;
55518;PMS5003;41724;51.176;-0.708;2023-05-19T09:12:39;7;7;
55518;PMS5003;41724;51.176;-0.708;2023-05-19T09:15:08;8;8;
55518;PMS5003;41724;51.176;-0.708;2023-05-19T09:17:37;9;9;
55518;PMS5003;41724;51.176;-0.708;2023-05-19T09:20:05;6;6;
55518;PMS5003;41724;51.176;-0.708;2023-05-19T09:22:33;8;8;
55518;PMS5003;41724;51.176;-0.708;2023-05-19T09:25:06;8;8;
55518;PMS5003;41724;51.176;-0.708;2023-05-19T09:27:44;12;11;
55518;PMS5003;41724;51.176;-0.708;2023-05-19T09:30:13;12;10;
55518;PMS5003;41724;51.176;-0.708;2023-05-19T09:32:41;11;11;
55518;PMS5003;41724;51.176;-0.708;2023-05-19T09:35:09;11;11;
55518;PMS5003;41724;51.176;-0.708;2023-05-19T09:37:38;8;7;
55518;PMS5003;41724;51.176;-0.708;2023-05-19T09:40:12;12;12;
55518;PMS5003;41724;51.176;-0.708;2023-05-19T09:42:40;11;11;
55518;PMS5003;41724;51.176;-0.708;2023-05-19T09:45:08;12;9;
55518;PMS5003;41724;51.176;-0.708;2023-05-19T09:47:36;15;14;
55518;PMS5003;41724;51.176;-0.708;2023-05-19T09:50:05;15;15;
55518;PMS5003;41724;51.176;-0.708;2023-05-19T09:52:34;17;17;
55518;PMS5003;41724;51.176;-0.708;2023-05-19T09:55:02;20;19;
55518;PMS5003;41724;51.176;-0.708;2023-05-19T09:57:32;14;13;
55518;PMS5003;41724;51.176;-0.708;2023-05-19T10:00:01;17;17;
55518;PMS5003;41724;51.176;-0.708;2023-05-19T10:02:29;15;13;
55518;PMS5003;41724;51.176;-0.708;2023-05-19T10:04:57;24;20;
55518;PMS5003;41724;51.176;-0.708;2023-05-19T10:07:25;15;14;
55518;PMS5003;41724;51.176;-0.708;2023-05-19T10:09:53;22;22;
55518;PMS5003;41724;51.176;-0.708;2023-05-19T10:12:22;14;14;
55518;PMS5003;41724;51.176;-0.708;2023-05-19T10:14:51;13;12;
55518;PMS5003;41724;51.176;-0.708;2023-05-19T10:17:19;13;11;
55518;PMS5003;41724;51.176;-0.708;2023-05-19T10:19:47;20;19;
55518;PMS5003;41724;51.176;-0.708;2023-05-19T10:22:17;13;13;
55518;PMS5003;41724;51.176;-0.708;2023-05-19T10:24:44;11;11;
55518;PMS5003;41724;51.176;-0.708;2023-05-19T10:27:12;15;15;
55518;PMS5003;41724;51.176;-0.708;2023-05-19T10:29:44;20;19;
55518;PMS5003;41724;51.176;-0.708;2023-05-19T10:32:16;17;15;
55518;PMS5003;41724;51.176;-0.708;2023-05-19T10:34:53;14;13;
55518;PMS5003;41724;51.176;-0.708;2023-05-19T10:37:51;15;15;
55518;PMS5003;41724;51.176;-0.708;2023-05-19T10:40:26;30;28;
55518;PMS5003;41724;51.176;-0.708;2023-05-19T10:43:00;21;21;
55518;PMS5003;41724;51.176;-0.708;2023-05-19T10:45:39;19;19;
55518;PMS5003;41724;51.176;-0.708;2023-05-19T10:48:12;26;25;
55518;PMS5003;41724;51.176;-0.708;2023-05-19T10:50:42;25;23;
55518;PMS5003;41724;51.176;-0.708;2023-05-19T10:53:13;23;22;
55518;PMS5003;41724;51.176;-0.708;2023-05-19T10:55:44;27;25;
55518;PMS5003;41724;51.176;-0.708;2023-05-19T10:58:12;24;24;
55518;PMS5003;41724;51.176;-0.708;2023-05-19T11:00:39;26;24;
55518;PMS5003;41724;51.176;-0.708;2023-05-19T11:03:13;18;17;
55518;PMS5003;41724;51.176;-0.708;2023-05-19T11:05:42;18;17;
55518;PMS5003;41724;51.176;-0.708;2023-05-19T11:08:10;17;16;
55518;PMS5003;41724;51.176;-0.708;2023-05-19T11:10:38;16;15;
55518;PMS5003;41724;51.176;-0.708;2023-05-19T11:13:17;13;12;
55518;PMS5003;41724;51.176;-0.708;2023-05-19T11:15:45;14;13;
55518;PMS5003;41724;51.176;-0.708;2023-05-19T11:18:12;13;13;
55518;PMS5003;41724;51.176;-0.708;2023-05-19T11:20:40;13;13;
55518;PMS5003;41724;51.176;-0.708;2023-05-19T11:23:08;12;11;
55518;PMS5003;41724;51.176;-0.708;2023-05-19T11:25:44;9;9;
55518;PMS5003;41724;51.176;-0.708;2023-05-19T11:28:11;11;11;
55518;PMS5003;41724;51.176;-0.708;2023-05-19T11:30:41;12;12;
55518;PMS5003;41724;51.176;-0.708;2023-05-19T11:33:10;12;12;
55518;PMS5003;41724;51.176;-0.708;2023-05-19T11:35:38;14;13;
55518;PMS5003;41724;51.176;-0.708;2023-05-19T11:38:06;14;13;
55518;PMS5003;41724;51.176;-0.708;2023-05-19T11:40:35;14;14;
55518;PMS5003;41724;51.176;-0.708;2023-05-19T11:43:02;17;16;
55518;PMS5003;41724;51.176;-0.708;2023-05-19T11:45:30;13;13;
55518;PMS5003;41724;51.176;-0.708;2023-05-19T11:47:58;18;15;
55518;PMS5003;41724;51.176;-0.708;2023-05-19T11:50:25;17;17;
55518;PMS5003;41724;51.176;-0.708;2023-05-19T11:52:58;14;14;
55518;PMS5003;41724;51.176;-0.708;2023-05-19T11:55:26;16;16;
55518;PMS5003;41724;51.176;-0.708;2023-05-19T11:57:56;23;18;
55518;PMS5003;41724;51.176;-0.708;2023-05-19T12:00:24;19;18;
55518;PMS5003;41724;51.176;-0.708;2023-05-19T12:02:52;25;24;
55518;PMS5003;41724;51.176;-0.708;2023-05-19T12:05:20;16;15;
55518;PMS5003;41724;51.176;-0.708;2023-05-19T12:07:49;14;14;
55518;PMS5003;41724;51.176;-0.708;2023-05-19T12:10:18;16;15;
55518;PMS5003;41724;51.176;-0.708;2023-05-19T12:12:48;13;13;
55518;PMS5003;41724;51.176;-0.708;2023-05-19T12:15:17;15;15;
55518;PMS5003;41724;51.176;-0.708;2023-05-19T12:17:44;12;12;
55518;PMS5003;41724;51.176;-0.708;2023-05-19T12:20:16;18;17;
55518;PMS5003;41724;51.176;-0.708;2023-05-19T12:22:44;17;17;
55518;PMS5003;41724;51.176;-0.708;2023-05-19T12:25:12;20;20;
55518;PMS5003;41724;51.176;-0.708;2023-05-19T12:27:41;15;15;
55518;PMS5003;41724;51.176;-0.708;2023-05-19T12:30:09;16;14;
55518;PMS5003;41724;51.176;-0.708;2023-05-19T12:32:37;19;15;
55518;PMS5003;41724;51.176;-0.708;2023-05-19T12:35:13;17;15;
55518;PMS5003;41724;51.176;-0.708;2023-05-19T12:37:40;12;12;
55518;PMS5003;41724;51.176;-0.708;2023-05-19T12:40:08;16;15;
55518;PMS5003;41724;51.176;-0.708;2023-05-19T12:42:42;15;15;
55518;PMS5003;41724;51.176;-0.708;2023-05-19T12:45:18;18;16;
55518;PMS5003;41724;51.176;-0.708;2023-05-19T12:47:47;13;13;
55518;PMS5003;41724;51.176;-0.708;2023-05-19T12:50:15;11;11;
55518;PMS5003;41724;51.176;-0.708;2023-05-19T12:52:48;16;13;
55518;PMS5003;41724;51.176;-0.708;2023-05-19T12:55:20;11;11;
55518;PMS5003;41724;51.176;-0.708;2023-05-19T12:57:52;11;11;
55518;PMS5003;41724;51.176;-0.708;2023-05-19T13:00:25;11;11;
55518;PMS5003;41724;51.176;-0.708;2023-05-19T13:02:54;11;11;
55518;PMS5003;41724;51.176;-0.708;2023-05-19T13:05:28;10;9;
55518;PMS5003;41724;51.176;-0.708;2023-05-19T13:07:57;10;10;
55518;PMS5003;41724;51.176;-0.708;2023-05-19T13:10:30;14;12;
55518;PMS5003;41724;51.176;-0.708;2023-05-19T13:12:58;13;12;
55518;PMS5003;41724;51.176;-0.708;2023-05-19T13:15:26;15;15;
55518;PMS5003;41724;51.176;-0.708;2023-05-19T13:17:58;12;12;
55518;PMS5003;41724;51.176;-0.708;2023-05-19T13:20:26;12;11;
55518;PMS5003;41724;51.176;-0.708;2023-05-19T13:22:53;12;11;
55518;PMS5003;41724;51.176;-0.708;2023-05-19T13:25:21;10;10;
55518;PMS5003;41724;51.176;-0.708;2023-05-19T13:27:48;12;12;
55518;PMS5003;41724;51.176;-0.708;2023-05-19T13:30:16;10;10;
55518;PMS5003;41724;51.176;-0.708;2023-05-19T13:32:43;13;13;
55518;PMS5003;41724;51.176;-0.708;2023-05-19T13:35:10;13;12;
55518;PMS5003;41724;51.176;-0.708;2023-05-19T13:37:39;10;9;
55518;PMS5003;41724;51.176;-0.708;2023-05-19T13:40:11;12;11;
55518;PMS5003;41724;51.176;-0.708;2023-05-19T13:42:39;18;16;
55518;PMS5003;41724;51.176;-0.708;2023-05-19T13:45:06;12;12;
55518;PMS5003;41724;51.176;-0.708;2023-05-19T13:47:36;8;8;
55518;PMS5003;41724;51.176;-0.708;2023-05-19T13:50:04;13;12;
55518;PMS5003;41724;51.176;-0.708;2023-05-19T13:52:32;9;9;
55518;PMS5003;41724;51.176;-0.708;2023-05-19T13:54:59;12;12;
55518;PMS5003;41724;51.176;-0.708;2023-05-19T13:57:26;12;10;
55518;PMS5003;41724;51.176;-0.708;2023-05-19T13:59:53;10;10;
55518;PMS5003;41724;51.176;-0.708;2023-05-19T14:02:21;15;15;
55518;PMS5003;41724;51.176;-0.708;2023-05-19T14:04:48;16;15;
55518;PMS5003;41724;51.176;-0.708;2023-05-19T14:07:15;10;10;
55518;PMS5003;41724;51.176;-0.708;2023-05-19T14:09:42;13;13;
55518;PMS5003;41724;51.176;-0.708;2023-05-19T14:12:09;14;14;
55518;PMS5003;41724;51.176;-0.708;2023-05-19T14:14:37;13;12;
55518;PMS5003;41724;51.176;-0.708;2023-05-19T14:17:04;12;11;
55518;PMS5003;41724;51.176;-0.708;2023-05-19T14:19:31;10;9;
55518;PMS5003;41724;51.176;-0.708;2023-05-19T14:21:57;11;11;
55518;PMS5003;41724;51.176;-0.708;2023-05-19T14:24:24;12;12;
55518;PMS5003;41724;51.176;-0.708;2023-05-19T14:26:51;17;17;
55518;PMS5003;41724;51.176;-0.708;2023-05-19T14:29:18;12;12;
55518;PMS5003;41724;51.176;-0.708;2023-05-19T14:31:46;14;13;
55518;PMS5003;41724;51.176;-0.708;2023-05-19T14:34:12;11;11;
55518;PMS5003;41724;51.176;-0.708;2023-05-19T14:36:40;13;12;
55518;PMS5003;41724;51.176;-0.708;2023-05-19T14:39:07;13;13;
55518;PMS5003;41724;51.176;-0.708;2023-05-19T14:41:35;13;12;
55518;PMS5003;41724;51.176;-0.708;2023-05-19T14:44:01;14;12;
55518;PMS5003;41724;51.176;-0.708;2023-05-19T14:46:29;13;12;
55518;PMS5003;41724;51.176;-0.708;2023-05-19T14:48:56;14;13;
55518;PMS5003;41724;51.176;-0.708;2023-05-19T14:51:24;15;15;
55518;PMS5003;41724;51.176;-0.708;2023-05-19T14:53:51;10;9;
55518;PMS5003;41724;51.176;-0.708;2023-05-19T14:56:18;11;10;
55518;PMS5003;41724;51.176;-0.708;2023-05-19T14:58:45;14;13;
55518;PMS5003;41724;51.176;-0.708;2023-05-19T15:01:12;13;12;
55518;PMS5003;41724;51.176;-0.708;2023-05-19T15:03:40;10;10;
55518;PMS5003;41724;51.176;-0.708;2023-05-19T15:06:07;11;11;
55518;PMS5003;41724;51.176;-0.708;2023-05-19T15:08:34;11;11;
55518;PMS5003;41724;51.176;-0.708;2023-05-19T15:11:02;10;10;
55518;PMS5003;41724;51.176;-0.708;2023-05-19T15:13:29;10;10;
55518;PMS5003;41724;51.176;-0.708;2023-05-19T15:15:56;8;8;
55518;PMS5003;41724;51.176;-0.708;2023-05-19T15:18:23;11;10;
55518;PMS5003;41724;51.176;-0.708;2023-05-19T15:20:50;9;9;
55518;PMS5003;41724;51.176;-0.708;2023-05-19T15:23:17;12;11;
55518;PMS5003;41724;51.176;-0.708;2023-05-19T15:25:44;11;11;
55518;PMS5003;41724;51.176;-0.708;2023-05-19T15:28:11;11;10;
55518;PMS5003;41724;51.176;-0.708;2023-05-19T15:30:38;13;12;
55518;PMS5003;41724;51.176;-0.708;2023-05-19T15:33:06;14;13;
55518;PMS5003;41724;51.176;-0.708;2023-05-19T15:35:33;15;15;
55518;PMS5003;41724;51.176;-0.708;2023-05-19T15:38:00;12;12;
55518;PMS5003;41724;51.176;-0.708;2023-05-19T15:40:27;13;12;
55518;PMS5003;41724;51.176;-0.708;2023-05-19T15:42:54;14;14;
55518;PMS5003;41724;51.176;-0.708;2023-05-19T15:45:21;14;11;
55518;PMS5003;41724;51.176;-0.708;2023-05-19T15:47:48;15;15;
55518;PMS5003;41724;51.176;-0.708;2023-05-19T15:50:16;10;9;
55518;PMS5003;41724;51.176;-0.708;2023-05-19T15:52:43;15;14;
55518;PMS5003;41724;51.176;-0.708;2023-05-19T15:55:15;14;13;
55518;PMS5003;41724;51.176;-0.708;2023-05-19T15:57:43;11;10;
55518;PMS5003;41724;51.176;-0.708;2023-05-19T16:00:10;12;11;
55518;PMS5003;41724;51.176;-0.708;2023-05-19T16:02:39;13;13;
55518;PMS5003;41724;51.176;-0.708;2023-05-19T16:05:06;14;12;
55518;PMS5003;41724;51.176;-0.708;2023-05-19T16:07:34;10;10;
55518;PMS5003;41724;51.176;-0.708;2023-05-19T16:10:00;10;10;
55518;PMS5003;41724;51.176;-0.708;2023-05-19T16:12:27;10;10;
55518;PMS5003;41724;51.176;-0.708;2023-05-19T16:14:55;14;14;
55518;PMS5003;41724;51.176;-0.708;2023-05-19T16:17:22;23;19;